Running Water, South Dakota
Current Conditions -  °F | °C
As of 7:35 PM on Thursday 27 Nov 2014 (Local Time) from KYKN Reporting Station
Overcast Overcast  
Wind Chill:   Ceiling: 12000
Heat Index: 19°   Visibility: 10mi
Dew Point: 10°   Wind: 14mph
Humidity: 68%   Direction: 130°SE
Pressure: 30.16"   Gusts: NA
Location:  42.8823°N, 97.9973°W
Report Text: KYKN 280135Z AUTO 13012KT 10SM OVC120 M07/M12 A3016 RMK AO1
Loading
Personal Weather Stations






























Interactive Weather Map New forecast layout! Learn more

10-Day Weather Forecast

Advertisements
Track Severe Weather on mobile